sensor_id;sensor_type;location;lat;lon;timestamp;pressure;altitude;pressure_sealevel;temperature;humidity
80102;BME280;69407;44.966;19.622;2024-02-21T00:00:43;101831.63;;;9.92;100.00
80102;BME280;69407;44.966;19.622;2024-02-21T00:03:08;101828.72;;;10.03;100.00
80102;BME280;69407;44.966;19.622;2024-02-21T00:05:34;101828.53;;;9.75;100.00
80102;BME280;69407;44.966;19.622;2024-02-21T00:07:59;101830.16;;;10.16;100.00
80102;BME280;69407;44.966;19.622;2024-02-21T00:10:25;101831.63;;;9.93;100.00
80102;BME280;69407;44.966;19.622;2024-02-21T00:12:51;101828.09;;;9.93;100.00
80102;BME280;69407;44.966;19.622;2024-02-21T00:15:17;101823.03;;;9.84;100.00
80102;BME280;69407;44.966;19.622;2024-02-21T00:17:46;101823.66;;;9.56;100.00
80102;BME280;69407;44.966;19.622;2024-02-21T00:20:11;101826.88;;;9.71;100.00
80102;BME280;69407;44.966;19.622;2024-02-21T00:22:37;101821.25;;;9.47;100.00
80102;BME280;69407;44.966;19.622;2024-02-21T00:25:03;101815.91;;;9.87;100.00
80102;BME280;69407;44.966;19.622;2024-02-21T00:27:28;101819.88;;;9.68;100.00
80102;BME280;69407;44.966;19.622;2024-02-21T00:29:54;101826.56;;;9.44;100.00
80102;BME280;69407;44.966;19.622;2024-02-21T00:32:19;101820.75;;;8.87;100.00
80102;BME280;69407;44.966;19.622;2024-02-21T00:34:45;101817.16;;;8.89;100.00
80102;BME280;69407;44.966;19.622;2024-02-21T00:37:10;101818.66;;;9.44;100.00
80102;BME280;69407;44.966;19.622;2024-02-21T00:39:36;101808.69;;;9.57;100.00
80102;BME280;69407;44.966;19.622;2024-02-21T00:42:02;101819.59;;;9.42;100.00
80102;BME280;69407;44.966;19.622;2024-02-21T00:44:28;101814.09;;;9.10;100.00
80102;BME280;69407;44.966;19.622;2024-02-21T00:46:53;101809.19;;;9.35;100.00
80102;BME280;69407;44.966;19.622;2024-02-21T00:49:18;101820.97;;;8.25;100.00
80102;BME280;69407;44.966;19.622;2024-02-21T00:51:44;101809.72;;;8.65;100.00
80102;BME280;69407;44.966;19.622;2024-02-21T00:54:09;101813.50;;;8.98;100.00
80102;BME280;69407;44.966;19.622;2024-02-21T00:56:35;101807.31;;;8.99;100.00
80102;BME280;69407;44.966;19.622;2024-02-21T00:59:00;101811.09;;;8.86;100.00
80102;BME280;69407;44.966;19.622;2024-02-21T01:01:26;101812.69;;;8.46;100.00
80102;BME280;69407;44.966;19.622;2024-02-21T01:03:51;101810.03;;;8.49;100.00
80102;BME280;69407;44.966;19.622;2024-02-21T01:06:20;101818.31;;;8.25;100.00
80102;BME280;69407;44.966;19.622;2024-02-21T01:08:46;101825.75;;;7.40;100.00
80102;BME280;69407;44.966;19.622;2024-02-21T01:11:13;101816.38;;;7.82;100.00
80102;BME280;69407;44.966;19.622;2024-02-21T01:13:39;101807.47;;;8.43;100.00
80102;BME280;69407;44.966;19.622;2024-02-21T01:16:05;101796.25;;;8.31;100.00
80102;BME280;69407;44.966;19.622;2024-02-21T01:18:34;101803.44;;;8.21;100.00
80102;BME280;69407;44.966;19.622;2024-02-21T01:21:00;101797.06;;;8.36;100.00
80102;BME280;69407;44.966;19.622;2024-02-21T01:23:25;101802.59;;;7.67;100.00
80102;BME280;69407;44.966;19.622;2024-02-21T01:25:51;101808.72;;;8.21;100.00
80102;BME280;69407;44.966;19.622;2024-02-21T01:28:17;101794.78;;;8.65;100.00
80102;BME280;69407;44.966;19.622;2024-02-21T01:30:43;101787.78;;;9.07;100.00
80102;BME280;69407;44.966;19.622;2024-02-21T01:33:08;101780.72;;;9.09;100.00
80102;BME280;69407;44.966;19.622;2024-02-21T01:35:35;101782.13;;;8.82;100.00
80102;BME280;69407;44.966;19.622;2024-02-21T01:38:01;101786.28;;;8.94;100.00
80102;BME280;69407;44.966;19.622;2024-02-21T01:40:26;101786.28;;;8.94;100.00
80102;BME280;69407;44.966;19.622;2024-02-21T01:42:54;101782.25;;;8.78;100.00
80102;BME280;69407;44.966;19.622;2024-02-21T01:45:20;101785.41;;;8.95;100.00
80102;BME280;69407;44.966;19.622;2024-02-21T01:47:46;101788.03;;;8.97;100.00
80102;BME280;69407;44.966;19.622;2024-02-21T01:50:12;101789.84;;;8.48;100.00
80102;BME280;69407;44.966;19.622;2024-02-21T01:52:39;101794.84;;;7.56;100.00
80102;BME280;69407;44.966;19.622;2024-02-21T01:55:05;101788.50;;;7.69;100.00
80102;BME280;69407;44.966;19.622;2024-02-21T01:57:32;101790.06;;;7.82;100.00
80102;BME280;69407;44.966;19.622;2024-02-21T01:59:57;101790.66;;;8.00;100.00
80102;BME280;69407;44.966;19.622;2024-02-21T02:02:24;101790.84;;;7.89;100.00
80102;BME280;69407;44.966;19.622;2024-02-21T02:04:51;101782.25;;;7.75;100.00
80102;BME280;69407;44.966;19.622;2024-02-21T02:07:17;101791.91;;;7.16;100.00
80102;BME280;69407;44.966;19.622;2024-02-21T02:09:43;101802.72;;;7.56;100.00
80102;BME280;69407;44.966;19.622;2024-02-21T02:12:08;101801.72;;;6.98;100.00
80102;BME280;69407;44.966;19.622;2024-02-21T02:14:34;101809.16;;;7.35;100.00
80102;BME280;69407;44.966;19.622;2024-02-21T02:16:59;101805.56;;;8.01;100.00
80102;BME280;69407;44.966;19.622;2024-02-21T02:19:25;101812.84;;;7.22;100.00
80102;BME280;69407;44.966;19.622;2024-02-21T02:21:54;101816.38;;;7.19;100.00
80102;BME280;69407;44.966;19.622;2024-02-21T02:24:24;101816.34;;;7.22;100.00
80102;BME280;69407;44.966;19.622;2024-02-21T02:26:50;101813.63;;;7.30;100.00
80102;BME280;69407;44.966;19.622;2024-02-21T02:29:16;101814.19;;;7.53;100.00
80102;BME280;69407;44.966;19.622;2024-02-21T02:31:42;101811.22;;;7.10;100.00
80102;BME280;69407;44.966;19.622;2024-02-21T02:34:07;101810.44;;;7.05;100.00
80102;BME280;69407;44.966;19.622;2024-02-21T02:36:33;101813.19;;;7.59;100.00
80102;BME280;69407;44.966;19.622;2024-02-21T02:38:59;101807.56;;;7.23;100.00
80102;BME280;69407;44.966;19.622;2024-02-21T02:41:24;101806.53;;;7.33;100.00
80102;BME280;69407;44.966;19.622;2024-02-21T02:43:50;101811.53;;;7.53;100.00
80102;BME280;69407;44.966;19.622;2024-02-21T02:46:15;101811.97;;;7.21;100.00
80102;BME280;69407;44.966;19.622;2024-02-21T02:48:41;101814.88;;;7.66;100.00
80102;BME280;69407;44.966;19.622;2024-02-21T02:51:06;101801.84;;;8.14;100.00
80102;BME280;69407;44.966;19.622;2024-02-21T02:53:32;101802.59;;;7.65;100.00
80102;BME280;69407;44.966;19.622;2024-02-21T02:55:57;101800.97;;;8.13;100.00
80102;BME280;69407;44.966;19.622;2024-02-21T02:58:23;101808.00;;;7.56;100.00
80102;BME280;69407;44.966;19.622;2024-02-21T03:00:49;101809.50;;;7.09;100.00
80102;BME280;69407;44.966;19.622;2024-02-21T03:03:14;101812.75;;;7.26;100.00
80102;BME280;69407;44.966;19.622;2024-02-21T03:05:40;101818.91;;;7.25;100.00
80102;BME280;69407;44.966;19.622;2024-02-21T03:08:05;101815.38;;;7.26;100.00
80102;BME280;69407;44.966;19.622;2024-02-21T03:10:33;101824.56;;;6.95;100.00
80102;BME280;69407;44.966;19.622;2024-02-21T03:12:59;101819.81;;;7.86;100.00
80102;BME280;69407;44.966;19.622;2024-02-21T03:15:24;101824.72;;;6.78;100.00
80102;BME280;69407;44.966;19.622;2024-02-21T03:17:50;101827.31;;;6.83;100.00
80102;BME280;69407;44.966;19.622;2024-02-21T03:20:15;101830.16;;;6.61;100.00
80102;BME280;69407;44.966;19.622;2024-02-21T03:22:41;101830.13;;;6.64;100.00
80102;BME280;69407;44.966;19.622;2024-02-21T03:25:08;101831.16;;;6.50;100.00
80102;BME280;69407;44.966;19.622;2024-02-21T03:27:35;101836.31;;;6.60;100.00
80102;BME280;69407;44.966;19.622;2024-02-21T03:30:00;101841.50;;;7.43;100.00
80102;BME280;69407;44.966;19.622;2024-02-21T03:32:26;101840.50;;;6.78;100.00
80102;BME280;69407;44.966;19.622;2024-02-21T03:34:52;101844.91;;;6.74;100.00
80102;BME280;69407;44.966;19.622;2024-02-21T03:37:18;101838.41;;;7.09;100.00
80102;BME280;69407;44.966;19.622;2024-02-21T03:39:43;101841.53;;;7.39;100.00
80102;BME280;69407;44.966;19.622;2024-02-21T03:42:09;101842.09;;;7.62;100.00
80102;BME280;69407;44.966;19.622;2024-02-21T03:44:35;101832.88;;;7.92;100.00
80102;BME280;69407;44.966;19.622;2024-02-21T03:47:00;101835.53;;;7.29;100.00
80102;BME280;69407;44.966;19.622;2024-02-21T03:49:26;101836.16;;;7.48;100.00
80102;BME280;69407;44.966;19.622;2024-02-21T03:51:52;101836.31;;;7.97;100.00
80102;BME280;69407;44.966;19.622;2024-02-21T03:54:18;101842.97;;;7.64;100.00
80102;BME280;69407;44.966;19.622;2024-02-21T03:56:43;101848.19;;;7.67;100.00
80102;BME280;69407;44.966;19.622;2024-02-21T03:59:09;101833.31;;;8.20;100.00
80102;BME280;69407;44.966;19.622;2024-02-21T04:01:35;101829.09;;;8.10;100.00
80102;BME280;69407;44.966;19.622;2024-02-21T04:04:00;101831.47;;;8.23;100.00
80102;BME280;69407;44.966;19.622;2024-02-21T04:06:26;101837.38;;;7.85;100.00
80102;BME280;69407;44.966;19.622;2024-02-21T04:08:51;101838.94;;;7.97;100.00
80102;BME280;69407;44.966;19.622;2024-02-21T04:11:17;101828.00;;;8.21;100.00
80102;BME280;69407;44.966;19.622;2024-02-21T04:13:44;101828.53;;;8.45;100.00
80102;BME280;69407;44.966;19.622;2024-02-21T04:16:10;101833.22;;;8.26;100.00
80102;BME280;69407;44.966;19.622;2024-02-21T04:18:36;101841.84;;;8.37;100.00
80102;BME280;69407;44.966;19.622;2024-02-21T04:21:01;101838.94;;;7.97;100.00
80102;BME280;69407;44.966;19.622;2024-02-21T04:23:27;101835.31;;;8.06;100.00
80102;BME280;69407;44.966;19.622;2024-02-21T04:25:52;101827.63;;;8.46;100.00
80102;BME280;69407;44.966;19.622;2024-02-21T04:28:18;101830.13;;;8.54;100.00
80102;BME280;69407;44.966;19.622;2024-02-21T04:30:43;101822.09;;;8.61;100.00
80102;BME280;69407;44.966;19.622;2024-02-21T04:33:09;101820.88;;;8.79;100.00
80102;BME280;69407;44.966;19.622;2024-02-21T04:35:36;101821.41;;;8.51;100.00
80102;BME280;69407;44.966;19.622;2024-02-21T04:38:01;101825.28;;;8.78;100.00
80102;BME280;69407;44.966;19.622;2024-02-21T04:40:27;101833.88;;;8.40;100.00
80102;BME280;69407;44.966;19.622;2024-02-21T04:42:54;101845.09;;;7.96;100.00
80102;BME280;69407;44.966;19.622;2024-02-21T04:45:19;101850.97;;;7.55;100.00
80102;BME280;69407;44.966;19.622;2024-02-21T04:47:45;101841.94;;;7.73;100.00
80102;BME280;69407;44.966;19.622;2024-02-21T04:50:10;101856.69;;;7.84;100.00
80102;BME280;69407;44.966;19.622;2024-02-21T04:52:36;101855.31;;;8.17;100.00
80102;BME280;69407;44.966;19.622;2024-02-21T04:55:01;101853.91;;;7.95;100.00
80102;BME280;69407;44.966;19.622;2024-02-21T04:57:27;101859.38;;;7.81;100.00
80102;BME280;69407;44.966;19.622;2024-02-21T04:59:52;101857.72;;;7.73;100.00
80102;BME280;69407;44.966;19.622;2024-02-21T05:02:17;101863.97;;;7.67;100.00
80102;BME280;69407;44.966;19.622;2024-02-21T05:04:45;101863.41;;;7.44;100.00
80102;BME280;69407;44.966;19.622;2024-02-21T05:07:11;101858.75;;;7.61;100.00
80102;BME280;69407;44.966;19.622;2024-02-21T05:09:37;101859.66;;;7.60;100.00
80102;BME280;69407;44.966;19.622;2024-02-21T05:12:03;101863.84;;;7.75;100.00
80102;BME280;69407;44.966;19.622;2024-02-21T05:14:28;101860.72;;;7.47;100.00
80102;BME280;69407;44.966;19.622;2024-02-21T05:16:54;101865.84;;;7.57;100.00
80102;BME280;69407;44.966;19.622;2024-02-21T05:19:19;101856.81;;;7.75;100.00
80102;BME280;69407;44.966;19.622;2024-02-21T05:21:45;101858.66;;;7.70;100.00
80102;BME280;69407;44.966;19.622;2024-02-21T05:24:11;101863.78;;;7.79;100.00
80102;BME280;69407;44.966;19.622;2024-02-21T05:26:36;101867.03;;;7.97;100.00
80102;BME280;69407;44.966;19.622;2024-02-21T05:29:02;101870.13;;;7.64;100.00
80102;BME280;69407;44.966;19.622;2024-02-21T05:31:54;101867.44;;;7.69;100.00
80102;BME280;69407;44.966;19.622;2024-02-21T05:34:20;101865.00;;;7.55;100.00
80102;BME280;69407;44.966;19.622;2024-02-21T05:36:46;101865.16;;;7.43;100.00
80102;BME280;69407;44.966;19.622;2024-02-21T05:39:13;101870.28;;;7.54;100.00
80102;BME280;69407;44.966;19.622;2024-02-21T05:41:38;101873.00;;;7.46;100.00
80102;BME280;69407;44.966;19.622;2024-02-21T05:44:03;101870.59;;;7.26;100.00
80102;BME280;69407;44.966;19.622;2024-02-21T05:46:29;101871.81;;;6.99;100.00
80102;BME280;69407;44.966;19.622;2024-02-21T05:48:54;101873.41;;;7.13;100.00
80102;BME280;69407;44.966;19.622;2024-02-21T05:51:20;101877.66;;;7.23;100.00
80102;BME280;69407;44.966;19.622;2024-02-21T05:53:45;101882.81;;;7.32;100.00
80102;BME280;69407;44.966;19.622;2024-02-21T05:56:12;101876.88;;;7.15;100.00
80102;BME280;69407;44.966;19.622;2024-02-21T05:58:38;101883.69;;;7.32;100.00
80102;BME280;69407;44.966;19.622;2024-02-21T06:01:03;101880.25;;;7.26;100.00
80102;BME280;69407;44.966;19.622;2024-02-21T06:03:30;101885.22;;;7.50;100.00
80102;BME280;69407;44.966;19.622;2024-02-21T06:05:55;101887.78;;;7.56;100.00
80102;BME280;69407;44.966;19.622;2024-02-21T06:08:21;101891.72;;;7.22;100.00
80102;BME280;69407;44.966;19.622;2024-02-21T06:10:46;101892.06;;;7.62;100.00
80102;BME280;69407;44.966;19.622;2024-02-21T06:13:13;101906.41;;;7.40;100.00
80102;BME280;69407;44.966;19.622;2024-02-21T06:15:39;101906.28;;;7.49;100.00
80102;BME280;69407;44.966;19.622;2024-02-21T06:18:04;101913.84;;;7.73;100.00
80102;BME280;69407;44.966;19.622;2024-02-21T06:20:30;101916.47;;;7.73;100.00
80102;BME280;69407;44.966;19.622;2024-02-21T06:22:55;101918.00;;;7.91;100.00
80102;BME280;69407;44.966;19.622;2024-02-21T06:25:21;101917.25;;;7.81;100.00
80102;BME280;69407;44.966;19.622;2024-02-21T06:27:46;101913.13;;;8.25;100.00
80102;BME280;69407;44.966;19.622;2024-02-21T06:30:12;101918.53;;;7.51;100.00
80102;BME280;69407;44.966;19.622;2024-02-21T06:32:38;101924.78;;;7.43;100.00
80102;BME280;69407;44.966;19.622;2024-02-21T06:35:04;101930.63;;;7.66;100.00
80102;BME280;69407;44.966;19.622;2024-02-21T06:37:30;101933.56;;;7.42;100.00
80102;BME280;69407;44.966;19.622;2024-02-21T06:39:57;101929.06;;;7.50;100.00
80102;BME280;69407;44.966;19.622;2024-02-21T06:42:24;101936.19;;;7.42;100.00
80102;BME280;69407;44.966;19.622;2024-02-21T06:44:51;101933.13;;;7.74;100.00
80102;BME280;69407;44.966;19.622;2024-02-21T06:47:17;101930.66;;;7.61;100.00
80102;BME280;69407;44.966;19.622;2024-02-21T06:49:42;101929.34;;;7.28;100.00
80102;BME280;69407;44.966;19.622;2024-02-21T06:52:08;101933.63;;;7.34;100.00
80102;BME280;69407;44.966;19.622;2024-02-21T06:54:33;101935.16;;;7.53;100.00
80102;BME280;69407;44.966;19.622;2024-02-21T06:56:59;101941.84;;;7.80;100.00
80102;BME280;69407;44.966;19.622;2024-02-21T06:59:24;101942.88;;;7.69;100.00
80102;BME280;69407;44.966;19.622;2024-02-21T07:01:53;101935.69;;;7.81;100.00
80102;BME280;69407;44.966;19.622;2024-02-21T07:04:20;101934.75;;;7.85;100.00
80102;BME280;69407;44.966;19.622;2024-02-21T07:06:46;101934.69;;;7.90;100.00
80102;BME280;69407;44.966;19.622;2024-02-21T07:09:11;101936.69;;;8.34;100.00
80102;BME280;69407;44.966;19.622;2024-02-21T07:11:37;101944.78;;;8.20;100.00
80102;BME280;69407;44.966;19.622;2024-02-21T07:14:02;101935.94;;;8.23;100.00
80102;BME280;69407;44.966;19.622;2024-02-21T07:16:27;101940.25;;;8.30;100.00
80102;BME280;69407;44.966;19.622;2024-02-21T07:18:55;101943.25;;;8.04;100.00
80102;BME280;69407;44.966;19.622;2024-02-21T07:21:20;101933.69;;;8.57;100.00
80102;BME280;69407;44.966;19.622;2024-02-21T07:23:46;101927.31;;;8.70;100.00
80102;BME280;69407;44.966;19.622;2024-02-21T07:26:11;101939.16;;;8.97;100.00
80102;BME280;69407;44.966;19.622;2024-02-21T07:28:37;101926.66;;;9.07;100.00
80102;BME280;69407;44.966;19.622;2024-02-21T07:31:02;101932.50;;;8.76;100.00
80102;BME280;69407;44.966;19.622;2024-02-21T07:33:28;101931.13;;;8.54;100.00
80102;BME280;69407;44.966;19.622;2024-02-21T07:35:53;101931.81;;;9.15;100.00
80102;BME280;69407;44.966;19.622;2024-02-21T07:38:19;101935.63;;;8.98;100.00
80102;BME280;69407;44.966;19.622;2024-02-21T07:40:45;101935.22;;;9.21;100.00
80102;BME280;69407;44.966;19.622;2024-02-21T07:43:10;101932.13;;;9.43;100.00
80102;BME280;69407;44.966;19.622;2024-02-21T07:45:36;101935.09;;;8.78;100.00
80102;BME280;69407;44.966;19.622;2024-02-21T07:48:02;101933.97;;;8.93;100.00
80102;BME280;69407;44.966;19.622;2024-02-21T07:50:27;101926.75;;;9.49;100.00
80102;BME280;69407;44.966;19.622;2024-02-21T07:52:53;101922.19;;;9.55;100.00
80102;BME280;69407;44.966;19.622;2024-02-21T07:55:18;101925.44;;;9.69;100.00
80102;BME280;69407;44.966;19.622;2024-02-21T07:57:44;101925.75;;;9.96;100.00
80102;BME280;69407;44.966;19.622;2024-02-21T08:00:10;101927.50;;;9.95;100.00
80102;BME280;69407;44.966;19.622;2024-02-21T08:02:40;101917.47;;;10.11;100.00
80102;BME280;69407;44.966;19.622;2024-02-21T08:05:08;101917.94;;;10.28;100.00
80102;BME280;69407;44.966;19.622;2024-02-21T08:07:33;101920.28;;;10.76;100.00
80102;BME280;69407;44.966;19.622;2024-02-21T08:09:58;101918.31;;;10.12;100.00
80102;BME280;69407;44.966;19.622;2024-02-21T08:12:24;101919.44;;;10.02;100.00
80102;BME280;69407;44.966;19.622;2024-02-21T08:14:49;101922.25;;;9.94;100.00
80102;BME280;69407;44.966;19.622;2024-02-21T08:17:15;101916.13;;;9.92;100.00
80102;BME280;69407;44.966;19.622;2024-02-21T08:19:40;101929.53;;;9.41;100.00
80102;BME280;69407;44.966;19.622;2024-02-21T08:22:06;101922.31;;;10.30;100.00
80102;BME280;69407;44.966;19.622;2024-02-21T08:24:32;101922.63;;;9.77;100.00
80102;BME280;69407;44.966;19.622;2024-02-21T08:26:57;101921.91;;;9.71;100.00
80102;BME280;69407;44.966;19.622;2024-02-21T08:29:23;101924.34;;;10.17;100.00
80102;BME280;69407;44.966;19.622;2024-02-21T08:31:48;101924.75;;;10.74;100.00
80102;BME280;69407;44.966;19.622;2024-02-21T08:34:14;101933.72;;;10.33;100.00
80102;BME280;69407;44.966;19.622;2024-02-21T08:36:40;101929.75;;;9.74;100.00
80102;BME280;69407;44.966;19.622;2024-02-21T08:39:05;101927.81;;;10.22;100.00
80102;BME280;69407;44.966;19.622;2024-02-21T08:41:31;101915.78;;;12.32;100.00
80102;BME280;69407;44.966;19.622;2024-02-21T08:43:57;101908.47;;;12.91;91.15
80102;BME280;69407;44.966;19.622;2024-02-21T08:46:23;101908.72;;;15.10;77.01
80102;BME280;69407;44.966;19.622;2024-02-21T08:48:53;101904.16;;;13.86;80.04
80102;BME280;69407;44.966;19.622;2024-02-21T08:51:19;101894.09;;;17.86;57.14
80102;BME280;69407;44.966;19.622;2024-02-21T08:53:45;101883.16;;;23.32;45.75
80102;BME280;69407;44.966;19.622;2024-02-21T08:56:11;101895.06;;;19.92;41.77
80102;BME280;69407;44.966;19.622;2024-02-21T08:58:38;101901.66;;;16.06;53.54
80102;BME280;69407;44.966;19.622;2024-02-21T09:01:05;101894.81;;;18.51;53.33
80102;BME280;69407;44.966;19.622;2024-02-21T09:03:33;101890.06;;;24.24;36.04
80102;BME280;69407;44.966;19.622;2024-02-21T09:05:59;101887.03;;;25.02;32.41
80102;BME280;69407;44.966;19.622;2024-02-21T09:08:26;101885.47;;;27.82;29.51
80102;BME280;69407;44.966;19.622;2024-02-21T09:10:52;101884.75;;;26.96;30.16
80102;BME280;69407;44.966;19.622;2024-02-21T09:13:18;101890.09;;;25.70;29.00
80102;BME280;69407;44.966;19.622;2024-02-21T09:15:44;101877.38;;;26.49;28.45
80102;BME280;69407;44.966;19.622;2024-02-21T09:18:09;101873.22;;;29.62;25.57
80102;BME280;69407;44.966;19.622;2024-02-21T09:20:35;101880.47;;;24.84;30.24
80102;BME280;69407;44.966;19.622;2024-02-21T09:23:01;101892.97;;;17.90;39.17
80102;BME280;69407;44.966;19.622;2024-02-21T09:25:26;101889.91;;;17.49;42.86
80102;BME280;69407;44.966;19.622;2024-02-21T09:27:54;101891.72;;;17.64;43.10
80102;BME280;69407;44.966;19.622;2024-02-21T09:30:20;101896.28;;;16.79;46.08
80102;BME280;69407;44.966;19.622;2024-02-21T09:32:46;101895.25;;;16.64;49.58
80102;BME280;69407;44.966;19.622;2024-02-21T09:35:12;101891.03;;;17.61;46.00
80102;BME280;69407;44.966;19.622;2024-02-21T09:37:38;101899.06;;;15.86;48.25
80102;BME280;69407;44.966;19.622;2024-02-21T09:40:04;101886.69;;;17.75;47.68
80102;BME280;69407;44.966;19.622;2024-02-21T09:42:38;101891.25;;;16.90;48.61
80102;BME280;69407;44.966;19.622;2024-02-21T09:45:21;101902.50;;;16.07;50.87
80102;BME280;69407;44.966;19.622;2024-02-21T09:48:10;101900.19;;;16.72;51.55
80102;BME280;69407;44.966;19.622;2024-02-21T09:50:40;101905.22;;;13.80;55.74
80102;BME280;69407;44.966;19.622;2024-02-21T09:53:06;101910.84;;;14.61;57.25
80102;BME280;69407;44.966;19.622;2024-02-21T09:55:37;101897.69;;;16.15;53.53
80102;BME280;69407;44.966;19.622;2024-02-21T09:58:05;101902.69;;;14.66;54.15
80102;BME280;69407;44.966;19.622;2024-02-21T10:00:31;101899.19;;;14.64;55.35
80102;BME280;69407;44.966;19.622;2024-02-21T10:02:58;101894.81;;;15.24;54.63
80102;BME280;69407;44.966;19.622;2024-02-21T10:05:23;101883.72;;;14.94;53.52
80102;BME280;69407;44.966;19.622;2024-02-21T10:07:51;101885.50;;;14.73;56.14
80102;BME280;69407;44.966;19.622;2024-02-21T10:10:16;101879.56;;;15.28;53.58
80102;BME280;69407;44.966;19.622;2024-02-21T10:12:52;101888.53;;;14.22;57.54
80102;BME280;69407;44.966;19.622;2024-02-21T10:15:23;101879.41;;;14.71;58.50
80102;BME280;69407;44.966;19.622;2024-02-21T10:18:01;101880.34;;;15.69;56.79
80102;BME280;69407;44.966;19.622;2024-02-21T10:20:29;101866.69;;;16.13;53.92
80102;BME280;69407;44.966;19.622;2024-02-21T10:23:06;101864.31;;;15.50;53.41
80102;BME280;69407;44.966;19.622;2024-02-21T10:25:35;101853.09;;;15.43;54.24
80102;BME280;69407;44.966;19.622;2024-02-21T10:28:03;101856.88;;;14.99;55.69
80102;BME280;69407;44.966;19.622;2024-02-21T10:30:29;101851.16;;;15.08;56.81
80102;BME280;69407;44.966;19.622;2024-02-21T10:32:54;101848.78;;;14.19;56.27
80102;BME280;69407;44.966;19.622;2024-02-21T10:35:31;101849.22;;;15.69;57.50
80102;BME280;69407;44.966;19.622;2024-02-21T10:37:57;101843.44;;;15.02;54.78
80102;BME280;69407;44.966;19.622;2024-02-21T10:40:27;101842.00;;;14.74;55.26
80102;BME280;69407;44.966;19.622;2024-02-21T10:43:02;101835.50;;;14.61;52.98
80102;BME280;69407;44.966;19.622;2024-02-21T10:45:30;101828.28;;;15.22;51.93
80102;BME280;69407;44.966;19.622;2024-02-21T10:48:24;101831.59;;;15.67;49.74
80102;BME280;69407;44.966;19.622;2024-02-21T10:51:03;101829.19;;;15.61;50.03
80102;BME280;69407;44.966;19.622;2024-02-21T10:56:57;101807.44;;;16.92;49.32
80102;BME280;69407;44.966;19.622;2024-02-21T10:59:24;101801.91;;;16.62;46.18
80102;BME280;69407;44.966;19.622;2024-02-21T11:02:12;101797.59;;;16.77;44.50
80102;BME280;69407;44.966;19.622;2024-02-21T11:05:27;101787.06;;;16.05;45.26
80102;BME280;69407;44.966;19.622;2024-02-21T11:08:12;101790.41;;;14.97;46.07
80102;BME280;69407;44.966;19.622;2024-02-21T11:10:37;101784.63;;;14.87;47.07
80102;BME280;69407;44.966;19.622;2024-02-21T11:13:09;101780.25;;;15.99;46.97
80102;BME280;69407;44.966;19.622;2024-02-21T11:15:35;101772.81;;;16.91;46.06
80102;BME280;69407;44.966;19.622;2024-02-21T11:18:01;101759.00;;;16.83;48.40
80102;BME280;69407;44.966;19.622;2024-02-21T11:20:49;101766.81;;;17.03;48.67
80102;BME280;69407;44.966;19.622;2024-02-21T11:23:36;101761.84;;;16.97;46.97
80102;BME280;69407;44.966;19.622;2024-02-21T11:26:45;101752.69;;;15.99;46.45
80102;BME280;69407;44.966;19.622;2024-02-21T11:29:46;101759.69;;;16.53;45.41
80102;BME280;69407;44.966;19.622;2024-02-21T11:32:18;101745.25;;;16.23;44.51
80102;BME280;69407;44.966;19.622;2024-02-21T11:35:03;101735.84;;;16.33;45.26
80102;BME280;69407;44.966;19.622;2024-02-21T11:37:49;101739.41;;;15.44;47.92
80102;BME280;69407;44.966;19.622;2024-02-21T11:40:15;101738.97;;;16.41;48.96
80102;BME280;69407;44.966;19.622;2024-02-21T11:42:41;101735.63;;;16.37;46.01
80102;BME280;69407;44.966;19.622;2024-02-21T11:45:08;101727.69;;;16.36;45.79
80102;BME280;69407;44.966;19.622;2024-02-21T11:47:34;101738.38;;;16.36;45.99
80102;BME280;69407;44.966;19.622;2024-02-21T11:49:59;101735.88;;;15.62;47.04
80102;BME280;69407;44.966;19.622;2024-02-21T11:52:25;101728.44;;;15.69;46.09
80102;BME280;69407;44.966;19.622;2024-02-21T11:54:52;101717.50;;;16.27;47.40
80102;BME280;69407;44.966;19.622;2024-02-21T11:57:20;101721.41;;;16.87;46.57
80102;BME280;69407;44.966;19.622;2024-02-21T11:59:45;101719.53;;;17.05;44.49
80102;BME280;69407;44.966;19.622;2024-02-21T12:02:12;101713.00;;;15.39;44.90
80102;BME280;69407;44.966;19.622;2024-02-21T12:04:38;101708.25;;;15.99;45.29
80102;BME280;69407;44.966;19.622;2024-02-21T12:07:04;101716.06;;;15.68;44.41
80102;BME280;69407;44.966;19.622;2024-02-21T12:09:30;101703.94;;;16.14;44.65
80102;BME280;69407;44.966;19.622;2024-02-21T12:11:59;101701.22;;;16.82;45.28
80102;BME280;69407;44.966;19.622;2024-02-21T12:14:27;101704.31;;;16.06;46.73
80102;BME280;69407;44.966;19.622;2024-02-21T12:16:53;101699.28;;;15.66;47.16
80102;BME280;69407;44.966;19.622;2024-02-21T12:19:19;101698.50;;;15.81;47.77
80102;BME280;69407;44.966;19.622;2024-02-21T12:21:45;101701.00;;;15.48;48.05
80102;BME280;69407;44.966;19.622;2024-02-21T12:24:23;101688.53;;;16.36;49.14
80102;BME280;69407;44.966;19.622;2024-02-21T12:26:49;101690.66;;;17.43;44.84
80102;BME280;69407;44.966;19.622;2024-02-21T12:29:15;101684.16;;;15.66;44.76
80102;BME280;69407;44.966;19.622;2024-02-21T12:31:41;101678.31;;;16.78;46.34
80102;BME280;69407;44.966;19.622;2024-02-21T12:34:08;101684.16;;;16.18;46.90
80102;BME280;69407;44.966;19.622;2024-02-21T12:36:40;101678.50;;;15.72;46.36
80102;BME280;69407;44.966;19.622;2024-02-21T12:39:06;101677.06;;;16.34;46.09
80102;BME280;69407;44.966;19.622;2024-02-21T12:41:31;101678.03;;;15.99;45.75
80102;BME280;69407;44.966;19.622;2024-02-21T12:43:58;101684.16;;;14.92;46.41